Weather History for Sidney, NE

Change the Weather History Date:

Saturday, March 22, 2014

  Actual Average Record
Temperature  
Mean Temperature 18 °F 40 °F  
Max Temperature 28 °F 55 °F 76 °F (1995)
Min Temperature 8 °F 26 °F 3 °F (1965)
Degree Days  
Heating Degree Days 47 25  
Month to date heating degree days 607 594  
Since 1 July heating degree days 5596 5176  
Cooling Degree Days 0 0  
Month to date cooling degree days 0 0  
Year to date cooling degree days 0 0  
Moisture  
Dew Point 18 °F    
Average Humidity 79    
Maximum Humidity 88    
Minimum Humidity 69    
Precipitation  
Precipitation T in 0.04 in 2.30 in (1979)
Month to date precipitation 0.09 0.68  
Year to date precipitation 1.04 1.20  
Sea Level Pressure  
Sea Level Pressure 30.29 in    
Wind  
Wind Speed 13 mph (East)    
Max Wind Speed 23 mph    
Max Gust Speed 25 mph    
Visibility 4 miles    
Events Fog , Snow    
T = Trace of Precipitation, MM = Missing Value Source: NWS Daily Summary

Daily Weather History Graph

Daily Weather History Graph

Search for Another Location

Airport:

Trip Planner

Search our weather history database for the weather conditions in past years. The results will help you decide how hot, cold, wet, or windy it might be!

Date:

Astronomy

Mar. 22, 2014 Rise Set
Actual Time 6:51 AM MDT 7:06 PM MDT
Civil Twilight 6:24 AM MDT 7:33 PM MDT
Nautical Twilight 5:52 AM MDT 8:06 PM MDT
Astronomical Twilight 5:19 AM MDT 8:39 PM MDT
Moon 12:30 AM MDT (3/22) 10:34 AM MDT (3/22)
Length of Visible Light 13h 09m
Length of Day
12h 14m
Waning Gibbous, 65% of the Moon is Illuminated
Mar 22
Waning Gibbous
Mar 23
Last Quarter
Mar 30
New
Apr 7
First Quarter
Apr 15
Full

Hourly Weather History & Observations

Time (MDT) Temp. Windchill Dew Point Humidity Pressure Visibility Wind Dir Wind Speed Gust Speed Precip Events Conditions
12:05 AM 28.9 °F 18.6 °F 21.0 °F 72% 30.22 in 10.0 mi East 12.7 mph - N/A   Overcast
12:24 AM 28.0 °F 17.5 °F 19.9 °F 72% 30.21 in 10.0 mi East 12.7 mph - N/A   Overcast
12:41 AM 28.0 °F 17.5 °F 19.9 °F 72% 30.21 in 10.0 mi East 12.7 mph - N/A   Overcast
12:53 AM 28.0 °F 17.5 °F 19.9 °F 72% 30.26 in 10.0 mi East 12.7 mph - N/A   Overcast
1:53 AM 28.0 °F 17.5 °F 19.9 °F 72% 30.24 in 10.0 mi East 12.7 mph - N/A   Overcast
2:40 AM 28.0 °F 17.5 °F 19.9 °F 72% 30.19 in 10.0 mi ESE 12.7 mph - N/A   Overcast
2:53 AM 27.0 °F 15.6 °F 19.9 °F 75% 30.23 in 10.0 mi East 13.8 mph - N/A   Overcast
3:53 AM 26.1 °F 13.6 °F 19.0 °F 75% 30.22 in 8.0 mi East 16.1 mph - 0.00 in Snow Light Snow
4:20 AM 26.1 °F 15.0 °F 21.0 °F 81% 30.17 in 2.5 mi East 12.7 mph - 0.00 in Snow Light Snow
4:36 AM 25.0 °F 12.6 °F 19.9 °F 81% 30.17 in 1.8 mi East 15.0 mph - 0.00 in Snow Light Snow
4:49 AM 24.8 °F 12.9 °F 19.4 °F 80% 30.17 in 1.8 mi East 13.8 mph - 0.00 in Snow Light Snow
4:53 AM 25.0 °F 14.2 °F 19.9 °F 81% 30.23 in 1.8 mi East 11.5 mph - 0.00 in Snow Light Snow
5:00 AM 25.0 °F 13.1 °F 19.9 °F 81% 30.17 in 2.0 mi East 13.8 mph - 0.00 in Snow Light Snow
5:09 AM 24.1 °F 12.5 °F 19.9 °F 84% 30.17 in 2.0 mi East 12.7 mph - 0.00 in Snow Light Snow
5:26 AM 24.1 °F 12.5 °F 19.9 °F 84% 30.17 in 3.0 mi East 12.7 mph - 0.00 in Snow Light Snow
5:32 AM 24.1 °F 12.5 °F 21.0 °F 88% 30.17 in 2.5 mi East 12.7 mph - 0.00 in Snow Light Snow
5:53 AM 24.1 °F 12.0 °F 19.9 °F 84% 30.25 in 2.0 mi East 13.8 mph - 0.00 in Snow Light Snow
6:22 AM 24.1 °F 11.5 °F 19.9 °F 84% 30.19 in 2.5 mi East 15.0 mph - 0.00 in Snow Light Snow
6:27 AM 24.1 °F 12.0 °F 19.9 °F 84% 30.19 in 2.5 mi East 13.8 mph - 0.00 in Snow Light Snow
6:43 AM 24.1 °F 12.0 °F 19.9 °F 84% 30.19 in 1.5 mi East 13.8 mph - 0.00 in Snow Light Snow
6:53 AM 24.1 °F 11.5 °F 19.9 °F 84% 30.27 in 1.8 mi East 15.0 mph - 0.00 in Snow Light Snow
7:12 AM 23.0 °F 10.1 °F 19.0 °F 85% 30.20 in 1.0 mi East 15.0 mph - 0.00 in Snow Light Snow
7:53 AM 23.0 °F 10.1 °F 19.0 °F 85% 30.31 in 0.8 mi ESE 15.0 mph - 0.00 in Snow Light Snow
8:53 AM 24.1 °F 11.5 °F 19.9 °F 84% 30.32 in 0.8 mi East 15.0 mph - 0.00 in Snow Light Snow
9:06 AM 24.1 °F 11.0 °F 19.9 °F 84% 30.21 in 1.0 mi ESE 16.1 mph - 0.00 in Snow Light Snow
9:18 AM 24.1 °F 10.6 °F 19.9 °F 84% 30.22 in 0.8 mi East 17.3 mph - 0.00 in Snow Light Snow
9:53 AM 24.1 °F 12.5 °F 19.9 °F 84% 30.34 in 0.5 mi ESE 12.7 mph - 0.00 in Fog , Snow Light Snow
10:14 AM 24.1 °F 11.5 °F 19.0 °F 81% 30.23 in 1.2 mi East 15.0 mph - 0.00 in Snow Light Snow
10:22 AM 24.1 °F 11.5 °F 19.9 °F 84% 30.24 in 1.0 mi East 15.0 mph - 0.00 in Snow Light Snow
10:26 AM 24.1 °F 11.0 °F 19.9 °F 84% 30.24 in 0.8 mi East 16.1 mph - 0.00 in Snow Light Snow
10:32 AM 24.1 °F 12.0 °F 19.9 °F 84% 30.24 in 1.0 mi East 13.8 mph - 0.00 in Snow Light Snow
10:37 AM 25.0 °F 12.6 °F 19.9 °F 81% 30.24 in 0.8 mi East 15.0 mph - 0.00 in Snow Light Snow
10:53 AM 25.0 °F 11.7 °F 19.9 °F 81% 30.35 in 0.8 mi East 17.3 mph - 0.00 in Snow Light Snow
11:13 AM 25.0 °F 12.2 °F 19.9 °F 81% 30.25 in 0.5 mi East 16.1 mph - 0.00 in Snow Snow
11:53 AM 25.0 °F 11.7 °F 19.9 °F 81% 30.36 in 0.5 mi East 17.3 mph - 0.00 in Snow Snow
12:08 PM 25.0 °F 12.2 °F 19.9 °F 81% 30.24 in 0.5 mi East 16.1 mph - 0.00 in Snow Snow
12:30 PM 25.0 °F 10.9 °F 19.0 °F 78% 30.25 in 0.8 mi East 19.6 mph - 0.00 in Snow Light Snow
12:48 PM 24.8 °F 10.7 °F 19.4 °F 80% 30.25 in 0.5 mi East 19.6 mph - 0.00 in Snow Snow
12:53 PM 24.1 °F 9.4 °F 19.0 °F 81% 30.37 in 0.5 mi East 20.7 mph - 0.00 in Snow Snow
1:19 PM 24.1 °F 10.6 °F 19.0 °F 81% 30.25 in 1.0 mi East 17.3 mph - 0.00 in Snow Light Snow
1:22 PM 24.1 °F 10.6 °F 19.0 °F 81% 30.25 in 1.2 mi East 17.3 mph - 0.00 in Snow Light Snow
1:29 PM 24.1 °F 9.8 °F 19.0 °F 81% 30.25 in 1.5 mi East 19.6 mph - 0.00 in Snow Light Snow
1:53 PM 24.1 °F 10.6 °F 18.0 °F 77% 30.38 in 1.5 mi East 17.3 mph - 0.00 in Snow Light Snow
1:59 PM 24.1 °F 11.0 °F 18.0 °F 77% 30.26 in 2.0 mi East 16.1 mph - 0.00 in Snow Light Snow
2:11 PM 23.0 °F 8.7 °F 18.0 °F 81% 30.26 in 1.2 mi East 18.4 mph - 0.00 in Snow Light Snow
2:13 PM 23.0 °F 8.3 °F 18.0 °F 81% 30.26 in 1.0 mi East 19.6 mph - 0.00 in Snow Light Snow
2:20 PM 23.0 °F 9.2 °F 17.1 °F 78% 30.26 in 1.0 mi East 17.3 mph - 0.00 in Snow Light Snow
2:47 PM 21.2 °F 6.8 °F 17.6 °F 86% 30.26 in 0.8 mi ENE 17.3 mph - 0.00 in Snow Light Snow
2:53 PM 21.9 °F 6.5 °F 17.1 °F 82% 30.39 in 0.5 mi ENE 20.7 mph - 0.00 in Snow Snow
3:20 PM 21.9 °F 7.8 °F 17.1 °F 82% 30.27 in 1.2 mi ENE 17.3 mph - 0.00 in Snow Light Snow
3:28 PM 21.0 °F 5.7 °F 16.0 °F 81% 30.28 in 1.5 mi ENE 19.6 mph - 0.00 in Snow Light Snow
3:42 PM 21.0 °F 6.2 °F 16.0 °F 81% 30.28 in 2.0 mi ENE 18.4 mph - 0.00 in Snow Light Snow
3:49 PM 21.2 °F 7.8 °F 15.8 °F 80% 30.28 in 2.5 mi ENE 15.0 mph - 0.00 in Snow Light Snow
3:53 PM 21.0 °F 6.2 °F 16.0 °F 81% 30.42 in 2.0 mi ENE 18.4 mph - 0.00 in Snow Light Snow
4:02 PM 21.9 °F 8.2 °F 16.0 °F 78% 30.29 in 1.8 mi ENE 16.1 mph - 0.00 in Snow Light Snow
4:16 PM 21.0 °F 7.6 °F 15.1 °F 78% 30.29 in 2.5 mi ENE 15.0 mph - 0.00 in Snow Light Snow
4:39 PM 21.0 °F 7.1 °F 16.0 °F 81% 30.29 in 4.0 mi ENE 16.1 mph - 0.00 in Snow Light Snow
4:53 PM 21.0 °F 8.6 °F 14.0 °F 74% 30.44 in 8.0 mi East 12.7 mph - 0.00 in   Overcast
5:03 PM 21.0 °F 7.6 °F 15.1 °F 78% 30.30 in 8.0 mi ENE 15.0 mph - N/A   Overcast
5:15 PM 21.0 °F 8.6 °F 15.1 °F 78% 30.31 in 10.0 mi ENE 12.7 mph - N/A   Mostly Cloudy
5:25 PM 19.9 °F 8.6 °F 14.0 °F 78% 30.32 in 10.0 mi ENE 10.4 mph - N/A   Mostly Cloudy
5:36 PM 19.9 °F 8.6 °F 14.0 °F 78% 30.32 in 10.0 mi ENE 10.4 mph - N/A   Scattered Clouds
5:53 PM 19.9 °F 7.9 °F 14.0 °F 78% 30.48 in 10.0 mi ENE 11.5 mph - N/A   Mostly Cloudy
6:08 PM 19.9 °F 8.6 °F 14.0 °F 78% 30.34 in 10.0 mi NE 10.4 mph - N/A   Mostly Cloudy
6:53 PM 19.9 °F 8.6 °F 14.0 °F 78% 30.50 in 5.0 mi ENE 10.4 mph - N/A   Haze
7:53 PM 19.0 °F 10.0 °F 12.9 °F 77% 30.53 in 7.0 mi NE 6.9 mph - N/A   Overcast
8:02 PM 19.0 °F 10.0 °F 12.9 °F 77% 30.38 in 7.0 mi NE 6.9 mph - N/A   Overcast
8:53 PM 18.0 °F 12.7 °F 12.9 °F 81% 30.55 in 10.0 mi East 3.5 mph - N/A   Overcast
9:53 PM 14.0 °F 8.2 °F 10.9 °F 88% 30.57 in 10.0 mi SSE 3.5 mph - N/A   Partly Cloudy
10:34 PM 9.0 °F 0.6 °F 5.0 °F 84% 30.39 in 10.0 mi South 4.6 mph - N/A   Mostly Cloudy
10:53 PM 12.0 °F 5.9 °F 8.1 °F 84% 30.57 in 10.0 mi SSW 3.5 mph - N/A   Overcast
11:53 PM 18.0 °F 11.1 °F 12.9 °F 81% 30.53 in 10.0 mi South 4.6 mph - N/A   Overcast